Preview of NWS' New Version of Forecast
This preview is not operational and should not be used for support decisions.

Terminal Aerodrome Forecast (TAF)

Issued by National Weather Service (NWS)

                            
000
FTUS42 KKEY 232324
TAFEYW
TAF
KEYW 232324Z 2400/2424 13015KT P6SM VCSH SCT025 BKN035
      TEMPO 2400/2404 6SM -SHRA BKN025
     FM240700 17015KT P6SM SCT025 BKN040
     FM241300 21014KT P6SM VCSH SCT025 BKN050
      TEMPO 2414/2418 2SM +SHRA BR BKN015
     FM242100 28008KT P6SM VCSH SCT020 BKN030=